sensor_id;sensor_type;location;lat;lon;timestamp;temperature;humidity
50947;DHT22;36955;47.416;7.716;2022-09-09T00:07:05;16.80;99.90
50947;DHT22;36955;47.416;7.716;2022-09-09T00:09:46;16.90;99.90
50947;DHT22;36955;47.416;7.716;2022-09-09T00:12:29;16.90;99.90
50947;DHT22;36955;47.416;7.716;2022-09-09T00:15:12;16.80;99.90
50947;DHT22;36955;47.416;7.716;2022-09-09T00:17:46;16.60;99.90
50947;DHT22;36955;47.416;7.716;2022-09-09T00:20:29;16.30;99.90
50947;DHT22;36955;47.416;7.716;2022-09-09T00:23:12;16.00;99.90
50947;DHT22;36955;47.416;7.716;2022-09-09T00:28:44;15.50;99.90
50947;DHT22;36955;47.416;7.716;2022-09-09T00:31:20;15.30;99.90
50947;DHT22;36955;47.416;7.716;2022-09-09T00:33:49;15.20;99.90
50947;DHT22;36955;47.416;7.716;2022-09-09T00:36:18;15.00;99.90
50947;DHT22;36955;47.416;7.716;2022-09-09T00:38:53;15.00;99.90
50947;DHT22;36955;47.416;7.716;2022-09-09T00:56:00;15.00;99.90
50947;DHT22;36955;47.416;7.716;2022-09-09T00:58:28;15.10;99.90
50947;DHT22;36955;47.416;7.716;2022-09-09T01:01:04;15.10;99.90
50947;DHT22;36955;47.416;7.716;2022-09-09T01:03:35;15.20;99.90
50947;DHT22;36955;47.416;7.716;2022-09-09T01:08:49;15.20;99.90
50947;DHT22;36955;47.416;7.716;2022-09-09T01:11:24;15.10;99.90
50947;DHT22;36955;47.416;7.716;2022-09-09T01:14:00;15.00;99.90
50947;DHT22;36955;47.416;7.716;2022-09-09T01:16:29;14.90;99.90
50947;DHT22;36955;47.416;7.716;2022-09-09T01:18:56;14.90;99.90
50947;DHT22;36955;47.416;7.716;2022-09-09T01:27:02;14.90;99.90
50947;DHT22;36955;47.416;7.716;2022-09-09T01:29:30;14.80;99.90
50947;DHT22;36955;47.416;7.716;2022-09-09T01:31:59;14.80;99.90
50947;DHT22;36955;47.416;7.716;2022-09-09T01:34:29;14.80;99.90
50947;DHT22;36955;47.416;7.716;2022-09-09T01:39:26;14.80;99.90
50947;DHT22;36955;47.416;7.716;2022-09-09T01:41:53;14.80;99.90
50947;DHT22;36955;47.416;7.716;2022-09-09T01:44:19;14.80;99.90
50947;DHT22;36955;47.416;7.716;2022-09-09T01:46:46;14.80;99.90
50947;DHT22;36955;47.416;7.716;2022-09-09T01:49:12;14.80;99.90
50947;DHT22;36955;47.416;7.716;2022-09-09T01:51:40;14.80;99.90
50947;DHT22;36955;47.416;7.716;2022-09-09T01:54:07;14.70;99.90
50947;DHT22;36955;47.416;7.716;2022-09-09T01:59:16;14.70;99.90
50947;DHT22;36955;47.416;7.716;2022-09-09T02:04:41;14.60;99.90
50947;DHT22;36955;47.416;7.716;2022-09-09T02:07:22;14.60;99.90
50947;DHT22;36955;47.416;7.716;2022-09-09T02:09:59;14.60;99.90
50947;DHT22;36955;47.416;7.716;2022-09-09T02:12:28;14.60;99.90
50947;DHT22;36955;47.416;7.716;2022-09-09T02:14:59;14.50;99.90
50947;DHT22;36955;47.416;7.716;2022-09-09T02:17:34;14.50;99.90
50947;DHT22;36955;47.416;7.716;2022-09-09T02:20:11;14.50;99.90
50947;DHT22;36955;47.416;7.716;2022-09-09T02:22:40;14.50;99.90
50947;DHT22;36955;47.416;7.716;2022-09-09T02:25:10;14.50;99.90
50947;DHT22;36955;47.416;7.716;2022-09-09T02:27:38;14.50;99.90
50947;DHT22;36955;47.416;7.716;2022-09-09T02:30:05;14.50;99.90
50947;DHT22;36955;47.416;7.716;2022-09-09T02:32:34;14.50;99.90
50947;DHT22;36955;47.416;7.716;2022-09-09T02:35:11;14.50;99.90
50947;DHT22;36955;47.416;7.716;2022-09-09T02:37:39;14.50;99.90
50947;DHT22;36955;47.416;7.716;2022-09-09T02:40:07;14.50;99.90
50947;DHT22;36955;47.416;7.716;2022-09-09T02:42:47;14.60;99.90
50947;DHT22;36955;47.416;7.716;2022-09-09T02:45:17;14.60;99.90
50947;DHT22;36955;47.416;7.716;2022-09-09T02:48:09;14.70;99.90
50947;DHT22;36955;47.416;7.716;2022-09-09T02:50:58;14.80;99.90
50947;DHT22;36955;47.416;7.716;2022-09-09T02:54:04;14.90;99.90
50947;DHT22;36955;47.416;7.716;2022-09-09T02:56:39;14.80;99.90
50947;DHT22;36955;47.416;7.716;2022-09-09T02:59:06;14.80;99.90
50947;DHT22;36955;47.416;7.716;2022-09-09T03:01:33;14.80;99.90
50947;DHT22;36955;47.416;7.716;2022-09-09T03:03:59;14.80;99.90
50947;DHT22;36955;47.416;7.716;2022-09-09T03:06:25;14.80;99.90
50947;DHT22;36955;47.416;7.716;2022-09-09T03:08:51;14.90;99.90
50947;DHT22;36955;47.416;7.716;2022-09-09T03:11:17;14.90;99.90
50947;DHT22;36955;47.416;7.716;2022-09-09T03:13:43;14.90;99.90
50947;DHT22;36955;47.416;7.716;2022-09-09T03:16:09;14.80;99.90
50947;DHT22;36955;47.416;7.716;2022-09-09T03:18:35;14.90;99.90
50947;DHT22;36955;47.416;7.716;2022-09-09T03:21:01;14.90;99.90
50947;DHT22;36955;47.416;7.716;2022-09-09T03:23:27;14.90;99.90
50947;DHT22;36955;47.416;7.716;2022-09-09T03:25:54;14.90;99.90
50947;DHT22;36955;47.416;7.716;2022-09-09T03:28:20;14.90;99.90
50947;DHT22;36955;47.416;7.716;2022-09-09T03:30:47;14.90;99.90
50947;DHT22;36955;47.416;7.716;2022-09-09T03:33:13;14.90;99.90
50947;DHT22;36955;47.416;7.716;2022-09-09T03:35:39;14.80;99.90
50947;DHT22;36955;47.416;7.716;2022-09-09T03:38:05;14.80;99.90
50947;DHT22;36955;47.416;7.716;2022-09-09T03:40:31;14.80;99.90
50947;DHT22;36955;47.416;7.716;2022-09-09T03:42:57;14.70;99.90
50947;DHT22;36955;47.416;7.716;2022-09-09T03:45:23;14.70;99.90
50947;DHT22;36955;47.416;7.716;2022-09-09T03:47:49;14.70;99.90
50947;DHT22;36955;47.416;7.716;2022-09-09T03:50:15;14.70;99.90
50947;DHT22;36955;47.416;7.716;2022-09-09T03:52:41;14.80;99.90
50947;DHT22;36955;47.416;7.716;2022-09-09T03:55:08;14.80;99.90
50947;DHT22;36955;47.416;7.716;2022-09-09T03:57:35;14.80;99.90
50947;DHT22;36955;47.416;7.716;2022-09-09T04:00:06;14.80;99.90
50947;DHT22;36955;47.416;7.716;2022-09-09T04:02:33;14.80;99.90
50947;DHT22;36955;47.416;7.716;2022-09-09T04:04:59;14.80;99.90
50947;DHT22;36955;47.416;7.716;2022-09-09T04:07:25;14.80;99.90
50947;DHT22;36955;47.416;7.716;2022-09-09T04:09:51;14.80;99.90
50947;DHT22;36955;47.416;7.716;2022-09-09T04:12:17;14.80;99.90
50947;DHT22;36955;47.416;7.716;2022-09-09T04:14:43;14.80;99.90
50947;DHT22;36955;47.416;7.716;2022-09-09T04:17:09;14.80;99.90
50947;DHT22;36955;47.416;7.716;2022-09-09T04:19:35;14.70;99.90
50947;DHT22;36955;47.416;7.716;2022-09-09T04:22:01;14.80;99.90
50947;DHT22;36955;47.416;7.716;2022-09-09T04:24:27;14.80;99.90
50947;DHT22;36955;47.416;7.716;2022-09-09T04:26:53;14.80;99.90
50947;DHT22;36955;47.416;7.716;2022-09-09T04:29:19;14.80;99.90
50947;DHT22;36955;47.416;7.716;2022-09-09T04:31:45;14.80;99.90
50947;DHT22;36955;47.416;7.716;2022-09-09T04:34:12;14.80;99.90
50947;DHT22;36955;47.416;7.716;2022-09-09T04:36:38;14.80;99.90
50947;DHT22;36955;47.416;7.716;2022-09-09T04:39:04;14.80;99.90
50947;DHT22;36955;47.416;7.716;2022-09-09T04:41:30;14.90;99.90
50947;DHT22;36955;47.416;7.716;2022-09-09T04:43:56;14.90;99.90
50947;DHT22;36955;47.416;7.716;2022-09-09T04:46:23;14.90;99.90
50947;DHT22;36955;47.416;7.716;2022-09-09T04:48:50;14.90;99.90
50947;DHT22;36955;47.416;7.716;2022-09-09T04:51:16;14.90;99.90
50947;DHT22;36955;47.416;7.716;2022-09-09T04:53:42;14.90;99.90
50947;DHT22;36955;47.416;7.716;2022-09-09T04:56:13;14.90;99.90
50947;DHT22;36955;47.416;7.716;2022-09-09T04:58:40;14.90;99.90
50947;DHT22;36955;47.416;7.716;2022-09-09T05:01:08;14.90;99.90
50947;DHT22;36955;47.416;7.716;2022-09-09T05:03:35;14.90;99.90
50947;DHT22;36955;47.416;7.716;2022-09-09T05:06:05;14.80;99.90
50947;DHT22;36955;47.416;7.716;2022-09-09T05:08:32;14.70;99.90
50947;DHT22;36955;47.416;7.716;2022-09-09T05:10:58;14.70;99.90
50947;DHT22;36955;47.416;7.716;2022-09-09T05:13:24;14.70;99.90
50947;DHT22;36955;47.416;7.716;2022-09-09T05:15:54;14.70;99.90
50947;DHT22;36955;47.416;7.716;2022-09-09T05:18:20;14.60;99.90
50947;DHT22;36955;47.416;7.716;2022-09-09T05:20:46;14.60;99.90
50947;DHT22;36955;47.416;7.716;2022-09-09T05:23:13;14.50;99.90
50947;DHT22;36955;47.416;7.716;2022-09-09T05:25:39;14.40;99.90
50947;DHT22;36955;47.416;7.716;2022-09-09T05:28:05;14.40;99.90
50947;DHT22;36955;47.416;7.716;2022-09-09T05:30:31;14.40;99.90
50947;DHT22;36955;47.416;7.716;2022-09-09T05:32:58;14.40;99.90
50947;DHT22;36955;47.416;7.716;2022-09-09T05:35:24;14.50;99.90
50947;DHT22;36955;47.416;7.716;2022-09-09T05:37:50;14.50;99.90
50947;DHT22;36955;47.416;7.716;2022-09-09T05:40:16;14.50;99.90
50947;DHT22;36955;47.416;7.716;2022-09-09T05:42:42;14.50;99.90
50947;DHT22;36955;47.416;7.716;2022-09-09T05:45:09;14.50;99.90
50947;DHT22;36955;47.416;7.716;2022-09-09T05:47:36;14.60;99.90
50947;DHT22;36955;47.416;7.716;2022-09-09T05:50:03;14.60;99.90
50947;DHT22;36955;47.416;7.716;2022-09-09T05:52:29;14.60;99.90
50947;DHT22;36955;47.416;7.716;2022-09-09T05:54:55;14.70;99.90
50947;DHT22;36955;47.416;7.716;2022-09-09T05:57:21;14.70;99.90
50947;DHT22;36955;47.416;7.716;2022-09-09T05:59:47;14.70;99.90
50947;DHT22;36955;47.416;7.716;2022-09-09T06:02:13;14.80;99.90
50947;DHT22;36955;47.416;7.716;2022-09-09T06:04:39;14.80;99.90
50947;DHT22;36955;47.416;7.716;2022-09-09T06:07:05;14.90;99.90
50947;DHT22;36955;47.416;7.716;2022-09-09T06:09:31;14.90;99.90
50947;DHT22;36955;47.416;7.716;2022-09-09T06:11:58;15.00;99.90
50947;DHT22;36955;47.416;7.716;2022-09-09T06:14:24;15.10;99.90
50947;DHT22;36955;47.416;7.716;2022-09-09T06:16:50;15.10;99.90
50947;DHT22;36955;47.416;7.716;2022-09-09T06:19:16;15.20;99.90
50947;DHT22;36955;47.416;7.716;2022-09-09T06:21:43;15.30;99.90
50947;DHT22;36955;47.416;7.716;2022-09-09T06:24:09;15.40;99.90
50947;DHT22;36955;47.416;7.716;2022-09-09T06:26:37;15.50;99.90
50947;DHT22;36955;47.416;7.716;2022-09-09T06:29:04;15.60;99.90
50947;DHT22;36955;47.416;7.716;2022-09-09T06:31:32;15.70;99.90
50947;DHT22;36955;47.416;7.716;2022-09-09T06:33:58;15.80;99.90
50947;DHT22;36955;47.416;7.716;2022-09-09T06:36:33;15.90;99.90
50947;DHT22;36955;47.416;7.716;2022-09-09T06:38:59;16.00;99.90
50947;DHT22;36955;47.416;7.716;2022-09-09T06:41:28;16.10;99.90
50947;DHT22;36955;47.416;7.716;2022-09-09T06:43:54;16.20;99.90
50947;DHT22;36955;47.416;7.716;2022-09-09T06:46:22;16.20;99.90
50947;DHT22;36955;47.416;7.716;2022-09-09T06:48:49;16.20;99.90
50947;DHT22;36955;47.416;7.716;2022-09-09T06:51:19;16.30;99.90
50947;DHT22;36955;47.416;7.716;2022-09-09T06:53:46;16.40;99.90
50947;DHT22;36955;47.416;7.716;2022-09-09T06:58:45;16.20;99.90
50947;DHT22;36955;47.416;7.716;2022-09-09T07:01:16;16.10;99.90
50947;DHT22;36955;47.416;7.716;2022-09-09T07:03:49;16.10;99.90
50947;DHT22;36955;47.416;7.716;2022-09-09T07:06:18;16.00;99.90
50947;DHT22;36955;47.416;7.716;2022-09-09T07:08:55;15.90;99.90
50947;DHT22;36955;47.416;7.716;2022-09-09T07:11:23;15.90;99.90
50947;DHT22;36955;47.416;7.716;2022-09-09T07:13:49;15.80;99.90
50947;DHT22;36955;47.416;7.716;2022-09-09T07:16:18;15.80;99.90
50947;DHT22;36955;47.416;7.716;2022-09-09T07:18:44;15.80;99.90
50947;DHT22;36955;47.416;7.716;2022-09-09T07:21:12;15.70;99.90
50947;DHT22;36955;47.416;7.716;2022-09-09T07:23:38;15.80;99.90
50947;DHT22;36955;47.416;7.716;2022-09-09T07:26:13;15.80;99.90
50947;DHT22;36955;47.416;7.716;2022-09-09T07:28:40;15.90;99.90
50947;DHT22;36955;47.416;7.716;2022-09-09T07:31:06;16.00;99.90
50947;DHT22;36955;47.416;7.716;2022-09-09T07:33:35;16.10;99.90
50947;DHT22;36955;47.416;7.716;2022-09-09T07:36:09;16.00;99.90
50947;DHT22;36955;47.416;7.716;2022-09-09T07:38:44;16.10;99.90
50947;DHT22;36955;47.416;7.716;2022-09-09T07:41:14;16.10;99.90
50947;DHT22;36955;47.416;7.716;2022-09-09T07:43:42;16.30;99.90
50947;DHT22;36955;47.416;7.716;2022-09-09T07:46:09;16.40;99.90
50947;DHT22;36955;47.416;7.716;2022-09-09T07:48:36;16.50;99.90
50947;DHT22;36955;47.416;7.716;2022-09-09T07:51:13;16.50;99.90
50947;DHT22;36955;47.416;7.716;2022-09-09T07:53:40;16.60;99.90
50947;DHT22;36955;47.416;7.716;2022-09-09T07:56:09;16.60;99.90
50947;DHT22;36955;47.416;7.716;2022-09-09T07:58:36;16.60;99.90
50947;DHT22;36955;47.416;7.716;2022-09-09T08:01:25;16.60;99.90
50947;DHT22;36955;47.416;7.716;2022-09-09T08:04:03;16.60;99.90
50947;DHT22;36955;47.416;7.716;2022-09-09T08:06:33;16.60;99.90
50947;DHT22;36955;47.416;7.716;2022-09-09T08:08:59;16.60;99.90
50947;DHT22;36955;47.416;7.716;2022-09-09T08:11:27;16.60;99.90
50947;DHT22;36955;47.416;7.716;2022-09-09T08:13:54;16.60;99.90
50947;DHT22;36955;47.416;7.716;2022-09-09T08:16:26;16.70;99.90
50947;DHT22;36955;47.416;7.716;2022-09-09T08:18:53;16.70;99.90
50947;DHT22;36955;47.416;7.716;2022-09-09T08:21:40;16.70;99.90
50947;DHT22;36955;47.416;7.716;2022-09-09T08:24:08;16.70;99.90
50947;DHT22;36955;47.416;7.716;2022-09-09T08:26:40;16.60;99.90
50947;DHT22;36955;47.416;7.716;2022-09-09T08:29:07;16.40;99.90
50947;DHT22;36955;47.416;7.716;2022-09-09T08:31:35;16.40;99.90
50947;DHT22;36955;47.416;7.716;2022-09-09T08:34:02;16.30;99.90
50947;DHT22;36955;47.416;7.716;2022-09-09T08:36:30;16.20;99.90
50947;DHT22;36955;47.416;7.716;2022-09-09T08:38:57;16.20;99.90
50947;DHT22;36955;47.416;7.716;2022-09-09T08:46:58;16.40;99.90
50947;DHT22;36955;47.416;7.716;2022-09-09T08:49:45;16.50;99.90
50947;DHT22;36955;47.416;7.716;2022-09-09T08:52:19;16.50;99.90
50947;DHT22;36955;47.416;7.716;2022-09-09T08:54:48;16.50;99.90
50947;DHT22;36955;47.416;7.716;2022-09-09T08:57:20;16.50;99.90
50947;DHT22;36955;47.416;7.716;2022-09-09T08:59:47;16.50;99.90
50947;DHT22;36955;47.416;7.716;2022-09-09T09:02:46;16.50;99.90
50947;DHT22;36955;47.416;7.716;2022-09-09T09:08:17;16.40;99.90
50947;DHT22;36955;47.416;7.716;2022-09-09T09:10:54;16.40;99.90
50947;DHT22;36955;47.416;7.716;2022-09-09T09:16:10;16.40;99.90
50947;DHT22;36955;47.416;7.716;2022-09-09T09:18:39;16.30;99.90
50947;DHT22;36955;47.416;7.716;2022-09-09T09:21:13;16.30;99.90
50947;DHT22;36955;47.416;7.716;2022-09-09T09:23:55;16.30;99.90
50947;DHT22;36955;47.416;7.716;2022-09-09T09:26:25;16.40;99.90
50947;DHT22;36955;47.416;7.716;2022-09-09T09:28:54;16.50;99.90
50947;DHT22;36955;47.416;7.716;2022-09-09T09:31:21;16.60;99.90
50947;DHT22;36955;47.416;7.716;2022-09-09T09:33:53;16.70;99.90
50947;DHT22;36955;47.416;7.716;2022-09-09T09:36:23;16.90;99.90
50947;DHT22;36955;47.416;7.716;2022-09-09T09:38:55;16.90;99.90
50947;DHT22;36955;47.416;7.716;2022-09-09T09:41:41;17.10;99.90
50947;DHT22;36955;47.416;7.716;2022-09-09T09:44:28;17.30;99.90
50947;DHT22;36955;47.416;7.716;2022-09-09T09:47:10;17.40;99.90
50947;DHT22;36955;47.416;7.716;2022-09-09T09:49:37;17.50;99.90
50947;DHT22;36955;47.416;7.716;2022-09-09T09:52:05;17.70;99.90
50947;DHT22;36955;47.416;7.716;2022-09-09T09:54:34;17.80;99.90
50947;DHT22;36955;47.416;7.716;2022-09-09T09:57:14;17.80;99.90
50947;DHT22;36955;47.416;7.716;2022-09-09T09:59:42;17.80;99.90
50947;DHT22;36955;47.416;7.716;2022-09-09T10:02:31;17.80;99.90
50947;DHT22;36955;47.416;7.716;2022-09-09T10:05:06;17.80;99.90
50947;DHT22;36955;47.416;7.716;2022-09-09T10:07:37;17.80;99.90
50947;DHT22;36955;47.416;7.716;2022-09-09T10:10:04;17.70;99.90
50947;DHT22;36955;47.416;7.716;2022-09-09T10:12:41;17.70;99.90
50947;DHT22;36955;47.416;7.716;2022-09-09T10:18:27;17.90;99.90
50947;DHT22;36955;47.416;7.716;2022-09-09T10:26:47;18.30;99.90
50947;DHT22;36955;47.416;7.716;2022-09-09T10:29:30;18.40;99.90
50947;DHT22;36955;47.416;7.716;2022-09-09T10:35:12;18.60;99.90
50947;DHT22;36955;47.416;7.716;2022-09-09T10:40:38;18.80;99.90
50947;DHT22;36955;47.416;7.716;2022-09-09T10:46:34;18.80;99.90
50947;DHT22;36955;47.416;7.716;2022-09-09T10:49:11;18.80;99.90
50947;DHT22;36955;47.416;7.716;2022-09-09T10:51:52;18.60;99.90
50947;DHT22;36955;47.416;7.716;2022-09-09T10:54:42;18.60;99.90
50947;DHT22;36955;47.416;7.716;2022-09-09T10:57:20;18.60;99.90
50947;DHT22;36955;47.416;7.716;2022-09-09T10:59:52;18.60;99.90
50947;DHT22;36955;47.416;7.716;2022-09-09T11:02:29;18.70;99.90
50947;DHT22;36955;47.416;7.716;2022-09-09T11:05:05;18.70;99.90
50947;DHT22;36955;47.416;7.716;2022-09-09T11:07:37;18.80;99.90
50947;DHT22;36955;47.416;7.716;2022-09-09T11:10:30;18.90;99.90
50947;DHT22;36955;47.416;7.716;2022-09-09T11:13:03;19.00;99.90
50947;DHT22;36955;47.416;7.716;2022-09-09T11:15:36;19.00;99.90
50947;DHT22;36955;47.416;7.716;2022-09-09T11:18:08;19.10;99.90
50947;DHT22;36955;47.416;7.716;2022-09-09T11:20:36;19.20;99.90
50947;DHT22;36955;47.416;7.716;2022-09-09T11:23:12;19.20;99.90
50947;DHT22;36955;47.416;7.716;2022-09-09T11:25:43;19.20;99.90
50947;DHT22;36955;47.416;7.716;2022-09-09T11:38:45;19.20;99.90
50947;DHT22;36955;47.416;7.716;2022-09-09T11:41:12;19.10;99.90
50947;DHT22;36955;47.416;7.716;2022-09-09T11:43:44;19.10;99.90
50947;DHT22;36955;47.416;7.716;2022-09-09T11:46:13;19.10;99.90
50947;DHT22;36955;47.416;7.716;2022-09-09T11:48:42;19.00;99.90
50947;DHT22;36955;47.416;7.716;2022-09-09T11:51:11;19.10;99.90
50947;DHT22;36955;47.416;7.716;2022-09-09T11:53:50;19.10;99.90
50947;DHT22;36955;47.416;7.716;2022-09-09T11:59:21;19.00;99.90
50947;DHT22;36955;47.416;7.716;2022-09-09T12:02:13;19.00;99.90
50947;DHT22;36955;47.416;7.716;2022-09-09T12:05:00;19.00;99.90
50947;DHT22;36955;47.416;7.716;2022-09-09T12:10:26;19.10;99.90
50947;DHT22;36955;47.416;7.716;2022-09-09T12:12:53;19.00;99.90
50947;DHT22;36955;47.416;7.716;2022-09-09T12:15:26;19.00;99.90
50947;DHT22;36955;47.416;7.716;2022-09-09T12:17:54;19.10;99.90
50947;DHT22;36955;47.416;7.716;2022-09-09T12:33:51;19.80;99.90
50947;DHT22;36955;47.416;7.716;2022-09-09T12:36:24;20.00;99.90
50947;DHT22;36955;47.416;7.716;2022-09-09T12:38:54;20.10;99.90
50947;DHT22;36955;47.416;7.716;2022-09-09T12:41:26;20.10;99.90
50947;DHT22;36955;47.416;7.716;2022-09-09T12:44:08;20.20;99.90
50947;DHT22;36955;47.416;7.716;2022-09-09T12:46:43;20.10;99.90
50947;DHT22;36955;47.416;7.716;2022-09-09T12:49:30;20.00;99.90
50947;DHT22;36955;47.416;7.716;2022-09-09T12:51:57;19.80;99.90
50947;DHT22;36955;47.416;7.716;2022-09-09T12:54:23;19.60;99.90
50947;DHT22;36955;47.416;7.716;2022-09-09T12:56:50;19.40;99.90
50947;DHT22;36955;47.416;7.716;2022-09-09T12:59:34;19.30;99.90
50947;DHT22;36955;47.416;7.716;2022-09-09T13:02:01;19.20;99.90
50947;DHT22;36955;47.416;7.716;2022-09-09T13:04:27;19.20;99.90
50947;DHT22;36955;47.416;7.716;2022-09-09T13:06:53;19.10;99.90
50947;DHT22;36955;47.416;7.716;2022-09-09T13:09:19;18.90;99.90
50947;DHT22;36955;47.416;7.716;2022-09-09T13:11:49;18.50;99.90
50947;DHT22;36955;47.416;7.716;2022-09-09T13:14:29;18.10;99.90
50947;DHT22;36955;47.416;7.716;2022-09-09T13:16:58;17.70;99.90
50947;DHT22;36955;47.416;7.716;2022-09-09T13:19:25;17.40;99.90
50947;DHT22;36955;47.416;7.716;2022-09-09T13:21:51;17.20;99.90
50947;DHT22;36955;47.416;7.716;2022-09-09T13:24:35;17.00;99.90
50947;DHT22;36955;47.416;7.716;2022-09-09T13:27:04;17.30;99.90
50947;DHT22;36955;47.416;7.716;2022-09-09T13:29:32;17.60;99.90
50947;DHT22;36955;47.416;7.716;2022-09-09T13:32:16;17.80;99.90
50947;DHT22;36955;47.416;7.716;2022-09-09T13:34:51;18.10;99.90
50947;DHT22;36955;47.416;7.716;2022-09-09T13:39:53;18.90;99.90
50947;DHT22;36955;47.416;7.716;2022-09-09T13:42:31;19.20;99.90
50947;DHT22;36955;47.416;7.716;2022-09-09T13:44:59;19.60;99.90
50947;DHT22;36955;47.416;7.716;2022-09-09T13:47:33;19.90;99.90
50947;DHT22;36955;47.416;7.716;2022-09-09T13:50:24;20.10;99.90
50947;DHT22;36955;47.416;7.716;2022-09-09T13:52:52;19.90;99.90
50947;DHT22;36955;47.416;7.716;2022-09-09T13:55:20;19.70;99.90
50947;DHT22;36955;47.416;7.716;2022-09-09T13:58:01;19.60;99.90
50947;DHT22;36955;47.416;7.716;2022-09-09T14:00:31;19.80;99.90
50947;DHT22;36955;47.416;7.716;2022-09-09T14:02:57;20.00;99.90
50947;DHT22;36955;47.416;7.716;2022-09-09T14:05:23;20.30;99.90
50947;DHT22;36955;47.416;7.716;2022-09-09T14:07:50;20.70;99.90
50947;DHT22;36955;47.416;7.716;2022-09-09T14:10:16;21.00;99.90
50947;DHT22;36955;47.416;7.716;2022-09-09T14:12:42;21.10;99.90
50947;DHT22;36955;47.416;7.716;2022-09-09T14:15:11;21.00;99.90
50947;DHT22;36955;47.416;7.716;2022-09-09T14:17:37;21.00;99.90
50947;DHT22;36955;47.416;7.716;2022-09-09T14:20:04;21.20;99.90
50947;DHT22;36955;47.416;7.716;2022-09-09T14:22:30;21.50;99.90
50947;DHT22;36955;47.416;7.716;2022-09-09T14:24:56;21.70;99.90
50947;DHT22;36955;47.416;7.716;2022-09-09T14:27:23;21.70;99.90
50947;DHT22;36955;47.416;7.716;2022-09-09T14:29:49;21.70;99.90
50947;DHT22;36955;47.416;7.716;2022-09-09T14:32:15;21.60;99.90
50947;DHT22;36955;47.416;7.716;2022-09-09T14:34:41;21.60;99.90
50947;DHT22;36955;47.416;7.716;2022-09-09T14:37:07;21.60;99.90
50947;DHT22;36955;47.416;7.716;2022-09-09T14:39:33;21.70;99.90
50947;DHT22;36955;47.416;7.716;2022-09-09T14:41:59;21.90;99.90
50947;DHT22;36955;47.416;7.716;2022-09-09T14:44:25;21.90;99.90
50947;DHT22;36955;47.416;7.716;2022-09-09T14:46:51;21.80;99.90
50947;DHT22;36955;47.416;7.716;2022-09-09T14:49:17;21.70;99.90
50947;DHT22;36955;47.416;7.716;2022-09-09T14:51:43;21.60;99.90
50947;DHT22;36955;47.416;7.716;2022-09-09T14:54:09;21.40;99.90
50947;DHT22;36955;47.416;7.716;2022-09-09T14:56:36;21.20;99.90
50947;DHT22;36955;47.416;7.716;2022-09-09T14:59:02;21.00;99.90
50947;DHT22;36955;47.416;7.716;2022-09-09T15:01:30;20.80;99.90
50947;DHT22;36955;47.416;7.716;2022-09-09T15:04:02;20.60;99.90
50947;DHT22;36955;47.416;7.716;2022-09-09T15:06:34;20.50;99.90
50947;DHT22;36955;47.416;7.716;2022-09-09T15:09:01;20.60;99.90
50947;DHT22;36955;47.416;7.716;2022-09-09T15:11:29;20.80;99.90
50947;DHT22;36955;47.416;7.716;2022-09-09T15:13:56;21.10;99.90
50947;DHT22;36955;47.416;7.716;2022-09-09T15:16:25;21.30;99.90
50947;DHT22;36955;47.416;7.716;2022-09-09T15:18:55;21.40;99.90
50947;DHT22;36955;47.416;7.716;2022-09-09T15:21:24;21.60;99.90
50947;DHT22;36955;47.416;7.716;2022-09-09T15:23:50;21.90;99.90
50947;DHT22;36955;47.416;7.716;2022-09-09T15:26:17;22.00;99.90
50947;DHT22;36955;47.416;7.716;2022-09-09T15:28:44;22.20;99.90
50947;DHT22;36955;47.416;7.716;2022-09-09T15:33:38;22.00;99.90
50947;DHT22;36955;47.416;7.716;2022-09-09T15:36:22;21.70;99.90
50947;DHT22;36955;47.416;7.716;2022-09-09T15:38:49;21.50;99.90
50947;DHT22;36955;47.416;7.716;2022-09-09T15:41:16;21.10;99.90
50947;DHT22;36955;47.416;7.716;2022-09-09T15:43:50;20.80;99.90
50947;DHT22;36955;47.416;7.716;2022-09-09T15:48:43;20.30;99.90
50947;DHT22;36955;47.416;7.716;2022-09-09T15:51:10;20.10;99.90
50947;DHT22;36955;47.416;7.716;2022-09-09T15:53:37;19.90;99.90
50947;DHT22;36955;47.416;7.716;2022-09-09T15:56:03;19.70;99.90
50947;DHT22;36955;47.416;7.716;2022-09-09T15:58:30;19.50;99.90
50947;DHT22;36955;47.416;7.716;2022-09-09T16:01:04;19.30;99.90
50947;DHT22;36955;47.416;7.716;2022-09-09T16:03:35;19.10;99.90
50947;DHT22;36955;47.416;7.716;2022-09-09T16:06:02;18.80;99.90
50947;DHT22;36955;47.416;7.716;2022-09-09T16:08:33;18.60;99.90
50947;DHT22;36955;47.416;7.716;2022-09-09T16:11:16;18.30;99.90
50947;DHT22;36955;47.416;7.716;2022-09-09T16:13:44;18.00;99.90
50947;DHT22;36955;47.416;7.716;2022-09-09T16:16:14;17.40;99.90
50947;DHT22;36955;47.416;7.716;2022-09-09T16:18:47;16.80;99.90
50947;DHT22;36955;47.416;7.716;2022-09-09T16:21:14;16.20;99.90
50947;DHT22;36955;47.416;7.716;2022-09-09T16:23:40;15.80;99.90
50947;DHT22;36955;47.416;7.716;2022-09-09T16:26:08;15.50;99.90
50947;DHT22;36955;47.416;7.716;2022-09-09T16:28:36;15.40;99.90
50947;DHT22;36955;47.416;7.716;2022-09-09T16:31:10;15.20;99.90
50947;DHT22;36955;47.416;7.716;2022-09-09T16:33:37;15.20;99.90
50947;DHT22;36955;47.416;7.716;2022-09-09T16:36:14;15.20;99.90
50947;DHT22;36955;47.416;7.716;2022-09-09T16:38:41;15.30;99.90
50947;DHT22;36955;47.416;7.716;2022-09-09T16:41:08;15.30;99.90
50947;DHT22;36955;47.416;7.716;2022-09-09T16:43:36;15.30;99.90
50947;DHT22;36955;47.416;7.716;2022-09-09T16:46:03;15.40;99.90
50947;DHT22;36955;47.416;7.716;2022-09-09T16:48:33;15.40;99.90
50947;DHT22;36955;47.416;7.716;2022-09-09T16:51:18;15.50;99.90
50947;DHT22;36955;47.416;7.716;2022-09-09T16:53:45;15.60;99.90
50947;DHT22;36955;47.416;7.716;2022-09-09T16:56:14;15.70;99.90
50947;DHT22;36955;47.416;7.716;2022-09-09T16:58:41;15.70;99.90
50947;DHT22;36955;47.416;7.716;2022-09-09T17:01:07;15.80;99.90
50947;DHT22;36955;47.416;7.716;2022-09-09T17:03:33;15.80;99.90
50947;DHT22;36955;47.416;7.716;2022-09-09T17:05:59;15.80;99.90
50947;DHT22;36955;47.416;7.716;2022-09-09T17:08:25;15.90;99.90
50947;DHT22;36955;47.416;7.716;2022-09-09T17:10:51;15.90;99.90
50947;DHT22;36955;47.416;7.716;2022-09-09T17:13:17;15.90;99.90
50947;DHT22;36955;47.416;7.716;2022-09-09T17:15:43;15.90;99.90
50947;DHT22;36955;47.416;7.716;2022-09-09T17:18:10;15.80;99.90
50947;DHT22;36955;47.416;7.716;2022-09-09T17:20:38;15.80;99.90
50947;DHT22;36955;47.416;7.716;2022-09-09T17:23:04;15.70;99.90
50947;DHT22;36955;47.416;7.716;2022-09-09T17:25:30;15.70;99.90
50947;DHT22;36955;47.416;7.716;2022-09-09T17:27:56;15.70;99.90
50947;DHT22;36955;47.416;7.716;2022-09-09T17:30:22;15.80;99.90
50947;DHT22;36955;47.416;7.716;2022-09-09T17:32:49;15.80;99.90
50947;DHT22;36955;47.416;7.716;2022-09-09T17:35:15;15.80;99.90
50947;DHT22;36955;47.416;7.716;2022-09-09T17:37:41;15.80;99.90